createdAt,value
2018-07-20T00:00:18.539Z,1011.70
2018-07-20T00:01:18.464Z,1011.70
2018-07-20T00:02:18.376Z,1011.69
2018-07-20T00:03:18.299Z,1011.72
2018-07-20T00:04:18.224Z,1011.71
2018-07-20T00:05:18.138Z,1011.66
2018-07-20T00:06:18.063Z,1011.63
2018-07-20T00:07:17.990Z,1011.62
2018-07-20T00:08:17.903Z,1011.64
2018-07-20T00:09:17.828Z,1011.62
2018-07-20T00:10:17.754Z,1011.63
2018-07-20T00:11:17.664Z,1011.56
2018-07-20T00:12:17.589Z,1011.60
2018-07-20T00:13:17.503Z,1011.61
2018-07-20T00:14:17.427Z,1011.56
2018-07-20T00:15:17.351Z,1011.57
2018-07-20T00:16:17.265Z,1011.53
2018-07-20T00:17:17.189Z,1011.57
2018-07-20T00:18:17.115Z,1011.58
2018-07-20T00:19:17.030Z,1011.54
2018-07-20T00:20:16.953Z,1011.55
2018-07-20T00:21:16.891Z,1011.53
2018-07-20T00:22:16.836Z,1011.52
2018-07-20T00:23:16.715Z,1011.50
2018-07-20T00:24:16.639Z,1011.47
2018-07-20T00:25:16.552Z,1011.50
2018-07-20T00:26:16.477Z,1011.46
2018-07-20T00:27:16.392Z,1011.46
2018-07-20T00:28:16.317Z,1011.46
2018-07-20T00:29:16.246Z,1011.48
2018-07-20T00:30:16.161Z,1011.47
2018-07-20T00:31:16.081Z,1011.48
2018-07-20T00:32:16.006Z,1011.47
2018-07-20T00:33:15.918Z,1011.46
2018-07-20T00:34:15.843Z,1011.41
2018-07-20T00:35:15.758Z,1011.40
2018-07-20T00:36:15.678Z,1011.41
2018-07-20T00:37:15.617Z,1011.41
2018-07-20T00:38:15.519Z,1011.40
2018-07-20T00:39:15.445Z,1011.42
2018-07-20T00:40:15.368Z,1011.39
2018-07-20T00:41:15.318Z,1011.39
2018-07-20T00:42:15.205Z,1011.38
2018-07-20T00:43:15.129Z,1011.35
2018-07-20T00:44:15.044Z,1011.38
2018-07-20T00:45:14.967Z,1011.33
2018-07-20T00:46:14.879Z,1011.36
2018-07-20T00:47:14.806Z,1011.32
2018-07-20T00:48:14.732Z,1011.31
2018-07-20T00:49:14.645Z,1011.29
2018-07-20T00:50:14.569Z,1011.28
2018-07-20T00:51:14.492Z,1011.31
2018-07-20T00:52:14.412Z,1011.33
2018-07-20T00:53:14.330Z,1011.29
2018-07-20T00:54:14.244Z,1011.29
2018-07-20T00:55:14.172Z,1011.31
2018-07-20T00:56:14.095Z,1011.27
2018-07-20T00:57:14.009Z,1011.25
2018-07-20T00:58:13.937Z,1011.25
2018-07-20T00:59:13.855Z,1011.28
2018-07-20T01:00:13.769Z,1011.24
2018-07-20T01:01:13.696Z,1011.20
2018-07-20T01:02:13.606Z,1011.17
2018-07-20T01:03:13.531Z,1011.19
2018-07-20T01:04:13.478Z,1011.13
2018-07-20T01:05:13.369Z,1011.12
2018-07-20T01:06:13.297Z,1011.09
2018-07-20T01:07:13.209Z,1011.10
2018-07-20T01:08:13.133Z,1011.08
2018-07-20T01:09:13.071Z,1011.07
2018-07-20T01:10:12.972Z,1011.13
2018-07-20T01:11:12.898Z,1011.10
2018-07-20T01:12:12.808Z,1011.13
2018-07-20T01:13:12.732Z,1011.08
2018-07-20T01:14:12.670Z,1011.09
2018-07-20T01:15:12.572Z,1011.12
2018-07-20T01:16:12.503Z,1011.11
2018-07-20T01:17:12.410Z,1011.11
2018-07-20T01:18:12.335Z,1011.13
2018-07-20T01:19:12.273Z,1011.12
2018-07-20T01:20:12.172Z,1011.15
2018-07-20T01:21:12.105Z,1011.12
2018-07-20T01:22:12.011Z,1011.14
2018-07-20T01:23:11.932Z,1011.12
2018-07-20T01:24:11.872Z,1011.14
2018-07-20T01:25:11.771Z,1011.11
2018-07-20T01:26:11.705Z,1011.13
2018-07-20T01:27:11.611Z,1011.13
2018-07-20T01:28:11.548Z,1011.13
2018-07-20T01:29:11.460Z,1011.14
2018-07-20T01:30:11.374Z,1011.14
2018-07-20T01:31:11.296Z,1011.15
2018-07-20T01:32:11.210Z,1011.15
2018-07-20T01:33:11.134Z,1011.12
2018-07-20T01:34:11.063Z,1011.11
2018-07-20T01:35:10.978Z,1011.16
2018-07-20T01:36:10.897Z,1011.13
2018-07-20T01:37:10.808Z,1011.13
2018-07-20T01:38:10.734Z,1011.10
2018-07-20T01:39:10.661Z,1011.10
2018-07-20T01:40:10.574Z,1011.09
2018-07-20T01:41:10.499Z,1011.06
2018-07-20T01:42:10.411Z,1011.13
2018-07-20T01:43:10.335Z,1011.08
2018-07-20T01:44:10.249Z,1011.07
2018-07-20T01:45:10.173Z,1011.06
2018-07-20T01:46:10.102Z,1011.08
2018-07-20T01:47:10.012Z,1011.07
2018-07-20T01:48:09.950Z,1011.07
2018-07-20T01:49:09.850Z,1011.08
2018-07-20T01:50:09.775Z,1011.01
2018-07-20T01:51:09.700Z,1011.09
2018-07-20T01:52:09.614Z,1011.05
2018-07-20T01:53:09.538Z,1011.03
2018-07-20T01:54:09.451Z,1011.03
2018-07-20T01:55:09.375Z,1011.02
2018-07-20T01:56:09.286Z,1011.00
2018-07-20T01:57:09.211Z,1011.02
2018-07-20T01:58:09.148Z,1011.00
2018-07-20T01:59:09.052Z,1011.01
2018-07-20T02:00:08.976Z,1011.00
2018-07-20T02:01:08.892Z,1011.00
2018-07-20T02:02:08.813Z,1011.02
2018-07-20T02:03:08.725Z,1011.01
2018-07-20T02:04:08.651Z,1011.05
2018-07-20T02:05:08.566Z,1011.06
2018-07-20T02:06:08.490Z,1011.05
2018-07-20T02:07:08.412Z,1011.08
2018-07-20T02:08:08.326Z,1011.11
2018-07-20T02:09:08.254Z,1011.13
2018-07-20T02:10:08.163Z,1011.07
2018-07-20T02:11:08.093Z,1011.06
2018-07-20T02:12:08.017Z,1011.09
2018-07-20T02:13:07.928Z,1011.07
2018-07-20T02:14:07.853Z,1011.07
2018-07-20T02:15:07.763Z,1011.05
2018-07-20T02:16:07.690Z,1011.07
2018-07-20T02:17:07.605Z,1011.10
2018-07-20T02:18:07.527Z,1011.12
2018-07-20T02:19:07.454Z,1011.13
2018-07-20T02:20:07.367Z,1011.09
2018-07-20T02:21:07.291Z,1011.11
2018-07-20T02:22:07.205Z,1011.06
2018-07-20T02:23:07.129Z,1011.06
2018-07-20T02:24:07.042Z,1011.07
2018-07-20T02:25:06.980Z,1011.11
2018-07-20T02:26:06.879Z,1011.11
2018-07-20T02:27:06.807Z,1011.12
2018-07-20T02:28:06.728Z,1011.10
2018-07-20T02:29:06.640Z,1011.09
2018-07-20T02:30:06.577Z,1011.08
2018-07-20T02:31:06.481Z,1011.08
2018-07-20T02:32:06.409Z,1011.06
2018-07-20T02:33:06.318Z,1011.03
2018-07-20T02:34:06.250Z,1011.01
2018-07-20T02:35:06.154Z,1011.00
2018-07-20T02:36:06.079Z,1011.03
2018-07-20T02:37:06.004Z,1011.00
2018-07-20T02:38:05.919Z,1011.01
2018-07-20T02:39:05.841Z,1011.01
2018-07-20T02:40:05.756Z,1010.97
2018-07-20T02:41:05.679Z,1010.98
2018-07-20T02:42:05.594Z,1010.97
2018-07-20T02:43:05.518Z,1010.97
2018-07-20T02:44:05.433Z,1010.97
2018-07-20T02:45:05.357Z,1010.96
2018-07-20T02:46:05.284Z,1010.93
2018-07-20T02:47:05.192Z,1010.99
2018-07-20T02:48:05.117Z,1010.93
2018-07-20T02:49:05.030Z,1010.93
2018-07-20T02:50:04.958Z,1010.90
2018-07-20T02:51:04.869Z,1010.89
2018-07-20T02:52:04.794Z,1010.87
2018-07-20T02:53:04.707Z,1010.92
2018-07-20T02:54:04.633Z,1010.89
2018-07-20T02:55:04.595Z,1010.87
2018-07-20T02:56:04.472Z,1010.82
2018-07-20T02:57:04.393Z,1010.84
2018-07-20T02:58:04.307Z,1010.83
2018-07-20T02:59:04.232Z,1010.84
2018-07-20T03:00:04.145Z,1010.82
2018-07-20T03:01:04.071Z,1010.83
2018-07-20T03:02:03.984Z,1010.80
2018-07-20T03:03:03.912Z,1010.84
2018-07-20T03:04:03.820Z,1010.83
2018-07-20T03:05:03.747Z,1010.85
2018-07-20T03:06:03.670Z,1010.84
2018-07-20T03:07:03.588Z,1010.85
2018-07-20T03:08:03.509Z,1010.84
2018-07-20T03:09:03.471Z,1010.83
2018-07-20T03:10:03.346Z,1010.83
2018-07-20T03:11:03.260Z,1010.84
2018-07-20T03:12:03.187Z,1010.84
2018-07-20T03:13:03.097Z,1010.82
2018-07-20T03:14:03.022Z,1010.88
2018-07-20T03:15:02.945Z,1010.83
2018-07-20T03:16:02.858Z,1010.80
2018-07-20T03:17:02.786Z,1010.82
2018-07-20T03:18:02.699Z,1010.79
2018-07-20T03:19:02.636Z,1010.76
2018-07-20T03:20:02.536Z,1010.76
2018-07-20T03:21:02.468Z,1010.78
2018-07-20T03:22:02.385Z,1010.75
2018-07-20T03:23:02.297Z,1010.78
2018-07-20T03:24:02.209Z,1010.75
2018-07-20T03:25:02.135Z,1010.77
2018-07-20T03:26:02.051Z,1010.76
2018-07-20T03:27:01.971Z,1010.77
2018-07-20T03:28:01.896Z,1010.77
2018-07-20T03:29:01.809Z,1010.80
2018-07-20T03:30:01.745Z,1010.83
2018-07-20T03:31:01.655Z,1010.85
2018-07-20T03:32:01.577Z,1010.88
2018-07-20T03:33:01.499Z,1010.91
2018-07-20T03:34:01.413Z,1010.92
2018-07-20T03:35:01.335Z,1010.92
2018-07-20T03:36:01.247Z,1010.93
2018-07-20T03:37:01.161Z,1010.93
2018-07-20T03:38:01.101Z,1010.89
2018-07-20T03:39:01.013Z,1010.96
2018-07-20T03:40:00.925Z,1010.91
2018-07-20T03:41:00.852Z,1010.96
2018-07-20T03:42:00.763Z,1010.91
2018-07-20T03:43:00.688Z,1010.90
2018-07-20T03:44:00.602Z,1010.90
2018-07-20T03:45:00.525Z,1010.86
2018-07-20T03:46:00.439Z,1010.91
2018-07-20T03:47:00.362Z,1010.90
2018-07-20T03:48:00.287Z,1010.91
2018-07-20T03:49:00.241Z,1010.92
2018-07-20T03:50:00.126Z,1010.89
2018-07-20T03:51:00.039Z,1010.87
2018-07-20T03:51:59.970Z,1010.87
2018-07-20T03:52:59.877Z,1010.87
2018-07-20T03:53:59.801Z,1010.83
2018-07-20T03:54:59.712Z,1010.84
2018-07-20T03:55:59.638Z,1010.86
2018-07-20T03:56:59.551Z,1010.86
2018-07-20T03:57:59.474Z,1010.85
2018-07-20T03:58:59.400Z,1010.84
2018-07-20T03:59:59.313Z,1010.80
2018-07-20T04:00:59.237Z,1010.81
2018-07-20T04:01:59.149Z,1010.79
2018-07-20T04:02:59.077Z,1010.80
2018-07-20T04:03:58.990Z,1010.80
2018-07-20T04:04:58.915Z,1010.81
2018-07-20T04:05:58.827Z,1010.75
2018-07-20T04:06:58.750Z,1010.81
2018-07-20T04:07:58.676Z,1010.82
2018-07-20T04:08:58.589Z,1010.80
2018-07-20T04:09:58.514Z,1010.80
2018-07-20T04:10:58.427Z,1010.80
2018-07-20T04:11:58.353Z,1010.81
2018-07-20T04:12:58.266Z,1010.78
2018-07-20T04:13:58.191Z,1010.79
2018-07-20T04:14:58.116Z,1010.76
2018-07-20T04:15:58.028Z,1010.80
2018-07-20T04:16:57.942Z,1010.77
2018-07-20T04:17:57.867Z,1010.73
2018-07-20T04:18:57.789Z,1010.70
2018-07-20T04:19:57.704Z,1010.72
2018-07-20T04:20:57.627Z,1010.72
2018-07-20T04:21:57.540Z,1010.77
2018-07-20T04:22:57.466Z,1010.75
2018-07-20T04:23:57.380Z,1010.70
2018-07-20T04:24:57.305Z,1010.75
2018-07-20T04:25:57.229Z,1010.75
2018-07-20T04:26:57.141Z,1010.72
2018-07-20T04:27:57.065Z,1010.77
2018-07-20T04:28:56.977Z,1010.75
2018-07-20T04:29:56.915Z,1010.76
2018-07-20T04:30:56.816Z,1010.80
2018-07-20T04:31:56.741Z,1010.78
2018-07-20T04:32:56.665Z,1010.81
2018-07-20T04:33:56.577Z,1010.83
2018-07-20T04:34:56.518Z,1010.81
2018-07-20T04:35:56.418Z,1010.82
2018-07-20T04:36:56.343Z,1010.84
2018-07-20T04:37:56.256Z,1010.77
2018-07-20T04:38:56.178Z,1010.79
2018-07-20T04:39:56.105Z,1010.82
2018-07-20T04:40:56.017Z,1010.79
2018-07-20T04:41:55.942Z,1010.78
2018-07-20T04:42:55.856Z,1010.78
2018-07-20T04:43:55.844Z,1010.82
2018-07-20T04:44:55.706Z,1010.78
2018-07-20T04:45:55.621Z,1010.71
2018-07-20T04:46:55.545Z,1010.69
2018-07-20T04:47:55.457Z,1010.68
2018-07-20T04:48:55.381Z,1010.74
2018-07-20T04:49:55.312Z,1010.74
2018-07-20T04:50:55.219Z,1010.75
2018-07-20T04:51:55.143Z,1010.84
2018-07-20T04:52:55.056Z,1010.82
2018-07-20T04:53:54.983Z,1010.84
2018-07-20T04:54:54.908Z,1010.88
2018-07-20T04:55:54.821Z,1010.89
2018-07-20T04:56:54.750Z,1010.88
2018-07-20T04:57:54.671Z,1010.85
2018-07-20T04:58:54.613Z,1010.87
2018-07-20T04:59:54.507Z,1010.89
2018-07-20T05:00:54.433Z,1010.91
2018-07-20T05:01:54.344Z,1010.94
2018-07-20T05:02:54.270Z,1010.96
2018-07-20T05:03:54.197Z,1010.95
2018-07-20T05:04:54.109Z,1010.91
2018-07-20T05:05:54.102Z,1010.92
2018-07-20T05:06:53.956Z,1010.89
2018-07-20T05:07:53.870Z,1010.90
2018-07-20T05:08:53.795Z,1010.91
2018-07-20T05:09:53.720Z,1010.89
2018-07-20T05:10:53.635Z,1010.93
2018-07-20T05:11:53.559Z,1010.91
2018-07-20T05:12:53.484Z,1010.87
2018-07-20T05:13:53.411Z,1010.85
2018-07-20T05:14:53.320Z,1010.84
2018-07-20T05:15:53.246Z,1010.85
2018-07-20T05:16:53.170Z,1010.84
2018-07-20T05:17:53.084Z,1010.80
2018-07-20T05:18:53.009Z,1010.85
2018-07-20T05:19:52.932Z,1010.86
2018-07-20T05:20:52.848Z,1010.84
2018-07-20T05:21:52.772Z,1010.82
2018-07-20T05:22:52.701Z,1010.80
2018-07-20T05:23:52.624Z,1010.79
2018-07-20T05:24:52.536Z,1010.80
2018-07-20T05:25:52.461Z,1010.81
2018-07-20T05:26:52.383Z,1010.81
2018-07-20T05:27:52.310Z,1010.85
2018-07-20T05:28:52.222Z,1010.83
2018-07-20T05:29:52.147Z,1010.83
2018-07-20T05:30:52.078Z,1010.85
2018-07-20T05:31:51.999Z,1010.85
2018-07-20T05:32:51.912Z,1010.84
2018-07-20T05:33:51.836Z,1010.84
2018-07-20T05:34:51.762Z,1010.86
2018-07-20T05:35:51.676Z,1010.88
2018-07-20T05:36:51.600Z,1010.84
2018-07-20T05:37:51.524Z,1010.84
2018-07-20T05:38:51.448Z,1010.84
2018-07-20T05:39:51.361Z,1010.82
2018-07-20T05:40:51.285Z,1010.85
2018-07-20T05:41:51.210Z,1010.89
2018-07-20T05:42:51.137Z,1010.86
2018-07-20T05:43:51.062Z,1010.86
2018-07-20T05:44:50.976Z,1010.85
2018-07-20T05:45:50.901Z,1010.83
2018-07-20T05:46:50.827Z,1010.81
2018-07-20T05:47:50.749Z,1010.81
2018-07-20T05:48:50.660Z,1010.81
2018-07-20T05:49:50.586Z,1010.77
2018-07-20T05:50:50.512Z,1010.77
2018-07-20T05:51:50.425Z,1010.76
2018-07-20T05:52:50.349Z,1010.73
2018-07-20T05:53:50.279Z,1010.74
2018-07-20T05:54:50.202Z,1010.73
2018-07-20T05:55:50.127Z,1010.74
2018-07-20T05:56:50.053Z,1010.74
2018-07-20T05:57:49.965Z,1010.80
2018-07-20T05:58:49.928Z,1010.81
2018-07-20T05:59:49.812Z,1010.84
2018-07-20T06:00:49.725Z,1010.84
2018-07-20T06:01:49.686Z,1010.82
2018-07-20T06:02:49.582Z,1010.87
2018-07-20T06:03:49.503Z,1010.84
2018-07-20T06:04:49.418Z,1010.82
2018-07-20T06:05:49.340Z,1010.85
2018-07-20T06:06:49.276Z,1010.85
2018-07-20T06:07:49.193Z,1010.85
2018-07-20T06:08:49.115Z,1010.85
2018-07-20T06:09:49.029Z,1010.84
2018-07-20T06:10:48.951Z,1010.88
2018-07-20T06:11:48.879Z,1010.89
2018-07-20T06:12:48.801Z,1010.91
2018-07-20T06:13:48.728Z,1010.87
2018-07-20T06:14:48.654Z,1010.96
2018-07-20T06:15:48.566Z,1010.88
2018-07-20T06:16:48.494Z,1010.91
2018-07-20T06:17:48.416Z,1010.84
2018-07-20T06:18:48.353Z,1010.85
2018-07-20T06:19:48.268Z,1010.86
2018-07-20T06:20:48.181Z,1010.83
2018-07-20T06:21:48.103Z,1010.85
2018-07-20T06:22:48.028Z,1010.87
2018-07-20T06:23:47.993Z,1010.85
2018-07-20T06:24:47.881Z,1010.87
2018-07-20T06:25:47.791Z,1010.85
2018-07-20T06:26:47.717Z,1010.86
2018-07-20T06:27:47.656Z,1010.88
2018-07-20T06:28:47.580Z,1010.87
2018-07-20T06:29:47.493Z,1010.89
2018-07-20T06:30:47.428Z,1010.87
2018-07-20T06:31:47.352Z,1010.85
2018-07-20T06:32:47.254Z,1010.86
2018-07-20T06:33:47.183Z,1010.84
2018-07-20T06:34:47.106Z,1010.85
2018-07-20T06:35:47.034Z,1010.84
2018-07-20T06:36:46.956Z,1010.87
2018-07-20T06:37:46.880Z,1010.83
2018-07-20T06:38:46.806Z,1010.84
2018-07-20T06:39:46.731Z,1010.83
2018-07-20T06:40:46.716Z,1010.81
2018-07-20T06:41:46.568Z,1010.80
2018-07-20T06:42:46.491Z,1010.80
2018-07-20T06:43:46.417Z,1010.77
2018-07-20T06:44:46.342Z,1010.74
2018-07-20T06:45:46.267Z,1010.79
2018-07-20T06:46:46.194Z,1010.79
2018-07-20T06:47:46.119Z,1010.81
2018-07-20T06:48:46.032Z,1010.90
2018-07-20T06:49:46.023Z,1010.85
2018-07-20T06:50:45.880Z,1010.83
2018-07-20T06:51:45.806Z,1010.85
2018-07-20T06:52:45.731Z,1010.86
2018-07-20T06:53:45.655Z,1010.85
2018-07-20T06:54:45.580Z,1010.86
2018-07-20T06:55:45.564Z,1010.85
2018-07-20T06:56:45.418Z,1010.88
2018-07-20T06:57:45.343Z,1010.85
2018-07-20T06:58:45.270Z,1010.90
2018-07-20T06:59:45.195Z,1010.92
2018-07-20T07:00:45.121Z,1010.89
2018-07-20T07:01:45.053Z,1010.87
2018-07-20T07:02:44.968Z,1010.91
2018-07-20T07:03:44.894Z,1010.89
2018-07-20T07:04:44.818Z,1010.91
2018-07-20T07:05:44.735Z,1010.92
2018-07-20T07:06:44.671Z,1010.95
2018-07-20T07:07:44.584Z,1010.93
2018-07-20T07:08:44.509Z,1010.91
2018-07-20T07:09:44.434Z,1010.95
2018-07-20T07:10:44.357Z,1010.96
2018-07-20T07:11:44.283Z,1010.91
2018-07-20T07:12:44.207Z,1010.95
2018-07-20T07:13:44.133Z,1010.91
2018-07-20T07:14:44.061Z,1010.92
2018-07-20T07:15:43.973Z,1010.95
2018-07-20T07:16:43.910Z,1010.94
2018-07-20T07:17:43.823Z,1010.92
2018-07-20T07:18:43.745Z,1011.00
2018-07-20T07:19:43.672Z,1011.03
2018-07-20T07:20:43.608Z,1011.01
2018-07-20T07:21:43.521Z,1011.01
2018-07-20T07:22:43.451Z,1011.06
2018-07-20T07:23:43.455Z,1011.12
2018-07-20T07:24:43.312Z,1011.09
2018-07-20T07:25:43.222Z,1011.06
2018-07-20T07:26:43.148Z,1011.06
2018-07-20T07:27:43.073Z,1011.09
2018-07-20T07:28:42.986Z,1011.09
2018-07-20T07:29:42.911Z,1011.12
2018-07-20T07:30:42.834Z,1011.13
2018-07-20T07:31:42.771Z,1011.13
2018-07-20T07:32:42.685Z,1011.15
2018-07-20T07:33:42.611Z,1011.17
2018-07-20T07:34:42.536Z,1011.20
2018-07-20T07:35:42.494Z,1011.17
2018-07-20T07:36:42.387Z,1011.18
2018-07-20T07:37:42.313Z,1011.18
2018-07-20T07:38:42.235Z,1011.20
2018-07-20T07:39:42.173Z,1011.20
2018-07-20T07:40:42.087Z,1011.15
2018-07-20T07:41:42.023Z,1011.20
2018-07-20T07:42:41.948Z,1011.16
2018-07-20T07:43:41.873Z,1011.15
2018-07-20T07:44:41.798Z,1011.16
2018-07-20T07:45:41.724Z,1011.14
2018-07-20T07:46:41.655Z,1011.13
2018-07-20T07:47:41.576Z,1011.12
2018-07-20T07:48:41.507Z,1011.08
2018-07-20T07:49:41.442Z,1011.13
2018-07-20T07:50:41.363Z,1011.13
2018-07-20T07:51:41.288Z,1011.10
2018-07-20T07:52:41.212Z,1011.11
2018-07-20T07:53:41.149Z,1011.14
2018-07-20T07:54:41.088Z,1011.14
2018-07-20T07:55:41.002Z,1011.14
2018-07-20T07:56:40.929Z,1011.14
2018-07-20T07:57:40.853Z,1011.13
2018-07-20T07:58:40.791Z,1011.12
2018-07-20T07:59:40.719Z,1011.14
2018-07-20T08:00:40.640Z,1011.15
2018-07-20T08:01:40.590Z,1011.13
2018-07-20T08:02:40.500Z,1011.12
2018-07-20T08:03:40.426Z,1011.13
2018-07-20T08:04:40.371Z,1011.12
2018-07-20T08:05:40.289Z,1011.15
2018-07-20T08:06:40.228Z,1011.11
2018-07-20T08:07:40.159Z,1011.12
2018-07-20T08:08:40.078Z,1011.10
2018-07-20T08:09:40.083Z,1011.11
2018-07-20T08:10:39.941Z,1011.10
2018-07-20T08:11:39.878Z,1011.14
2018-07-20T08:12:39.802Z,1011.15
2018-07-20T08:13:39.739Z,1011.15
2018-07-20T08:14:39.665Z,1011.17
2018-07-20T08:15:39.642Z,1011.16
2018-07-20T08:16:39.527Z,1011.13
2018-07-20T08:17:39.465Z,1011.09
2018-07-20T08:18:39.391Z,1011.11
2018-07-20T08:19:39.329Z,1011.13
2018-07-20T08:20:39.254Z,1011.12
2018-07-20T08:21:39.194Z,1011.13
2018-07-20T08:22:39.118Z,1011.09
2018-07-20T08:23:39.052Z,1011.10
2018-07-20T08:24:38.990Z,1011.10
2018-07-20T08:25:38.919Z,1011.09
2018-07-20T08:26:38.855Z,1011.12
2018-07-20T08:27:38.793Z,1011.07
2018-07-20T08:28:38.724Z,1011.11
2018-07-20T08:29:38.658Z,1011.10
2018-07-20T08:30:38.593Z,1011.08
2018-07-20T08:31:38.530Z,1011.09
2018-07-20T08:32:38.444Z,1011.13
2018-07-20T08:33:38.393Z,1011.14
2018-07-20T08:34:38.319Z,1011.13
2018-07-20T08:35:38.241Z,1011.18
2018-07-20T08:36:38.179Z,1011.20
2018-07-20T08:37:38.117Z,1011.20
2018-07-20T08:38:38.046Z,1011.17
2018-07-20T08:39:37.981Z,1011.16
2018-07-20T08:40:37.918Z,1011.15
2018-07-20T08:41:37.844Z,1011.12
2018-07-20T08:42:37.781Z,1011.17
2018-07-20T08:43:37.717Z,1011.11
2018-07-20T08:44:37.642Z,1011.13
2018-07-20T08:45:37.580Z,1011.15
2018-07-20T08:46:37.604Z,1011.10
2018-07-20T08:47:37.443Z,1011.12
2018-07-20T08:48:37.381Z,1011.12
2018-07-20T08:49:37.319Z,1011.14
2018-07-20T08:50:37.260Z,1011.17
2018-07-20T08:51:37.182Z,1011.15
2018-07-20T08:52:37.122Z,1011.13
2018-07-20T08:53:37.058Z,1011.14
2018-07-20T08:54:36.985Z,1011.16
2018-07-20T08:55:36.920Z,1011.15
2018-07-20T08:56:36.856Z,1011.18
2018-07-20T08:57:36.794Z,1011.16
2018-07-20T08:58:36.734Z,1011.20
2018-07-20T08:59:36.660Z,1011.08
2018-07-20T09:00:36.598Z,1011.05
2018-07-20T09:01:36.542Z,1011.14
2018-07-20T09:02:36.473Z,1011.12
2018-07-20T09:03:36.460Z,1011.09
2018-07-20T09:04:36.334Z,1011.16
2018-07-20T09:05:36.272Z,1011.17
2018-07-20T09:06:36.207Z,1011.12
2018-07-20T09:07:36.133Z,1011.13
2018-07-20T09:08:36.073Z,1011.11
2018-07-20T09:09:36.008Z,1011.10
2018-07-20T09:10:35.949Z,1011.00
2018-07-20T09:11:35.885Z,1010.98
2018-07-20T09:12:35.809Z,1011.09
2018-07-20T09:13:35.800Z,1011.07
2018-07-20T09:14:35.683Z,1011.05
2018-07-20T09:15:35.622Z,1011.06
2018-07-20T09:16:35.547Z,1011.09
2018-07-20T09:17:35.483Z,1011.11
2018-07-20T09:18:35.424Z,1011.14
2018-07-20T09:19:35.361Z,1011.16
2018-07-20T09:20:35.301Z,1011.15
2018-07-20T09:21:35.224Z,1011.15
2018-07-20T09:22:35.159Z,1011.17
2018-07-20T09:23:35.098Z,1011.15
2018-07-20T09:24:35.024Z,1011.16
2018-07-20T09:25:34.959Z,1011.16
2018-07-20T09:26:34.900Z,1011.19
2018-07-20T09:27:34.836Z,1011.22
2018-07-20T09:28:34.763Z,1011.19
2018-07-20T09:29:34.700Z,1011.20
2018-07-20T09:30:34.635Z,1011.23
2018-07-20T09:31:34.573Z,1011.20
2018-07-20T09:32:34.512Z,1011.19
2018-07-20T09:33:34.436Z,1011.23
2018-07-20T09:34:34.373Z,1011.19
2018-07-20T09:35:34.311Z,1011.17
2018-07-20T09:36:34.248Z,1011.20
2018-07-20T09:37:34.185Z,1011.21
2018-07-20T09:38:34.125Z,1011.17
2018-07-20T09:39:34.063Z,1011.14
2018-07-20T09:40:33.988Z,1011.16
2018-07-20T09:41:33.927Z,1011.19
2018-07-20T09:42:33.861Z,1011.19
2018-07-20T09:43:33.799Z,1011.11
2018-07-20T09:44:33.737Z,1011.10
2018-07-20T09:45:33.677Z,1011.10
2018-07-20T09:46:33.601Z,1011.13
2018-07-20T09:47:33.539Z,1011.11
2018-07-20T09:48:33.476Z,1011.14
2018-07-20T09:49:33.414Z,1010.92
2018-07-20T09:50:33.352Z,1010.84
2018-07-20T09:51:33.280Z,1010.90
2018-07-20T09:52:33.214Z,1010.76
2018-07-20T09:53:33.152Z,1010.73
2018-07-20T09:54:33.087Z,1010.79
2018-07-20T09:55:33.012Z,1010.79
2018-07-20T09:56:32.951Z,1010.84
2018-07-20T09:57:32.888Z,1010.84
2018-07-20T09:58:32.887Z,1010.80
2018-07-20T09:59:32.781Z,1010.75
2018-07-20T10:00:32.689Z,1010.81
2018-07-20T10:01:32.616Z,1010.83
2018-07-20T10:02:32.552Z,1010.85
2018-07-20T10:03:32.490Z,1010.83
2018-07-20T10:04:32.416Z,1010.80
2018-07-20T10:05:32.353Z,1010.83
2018-07-20T10:06:32.288Z,1010.89
2018-07-20T10:07:32.214Z,1011.09
2018-07-20T10:08:32.153Z,1011.09
2018-07-20T10:09:32.090Z,1011.05
2018-07-20T10:10:32.016Z,1010.74
2018-07-20T10:11:31.998Z,1010.74
2018-07-20T10:12:31.941Z,1010.71
2018-07-20T10:13:31.817Z,1010.67
2018-07-20T10:14:31.753Z,1010.70
2018-07-20T10:15:31.690Z,1010.71
2018-07-20T10:16:31.615Z,1010.69
2018-07-20T10:17:31.553Z,1010.68
2018-07-20T10:18:31.480Z,1010.69
2018-07-20T10:19:31.417Z,1010.65
2018-07-20T10:20:31.355Z,1010.64
2018-07-20T10:21:31.281Z,1010.66
2018-07-20T10:22:31.218Z,1010.62
2018-07-20T10:23:31.143Z,1010.60
2018-07-20T10:24:31.081Z,1010.59
2018-07-20T10:25:31.043Z,1010.59
2018-07-20T10:26:30.941Z,1010.60
2018-07-20T10:27:30.879Z,1010.58
2018-07-20T10:28:30.811Z,1010.59
2018-07-20T10:29:30.740Z,1010.57
2018-07-20T10:30:30.682Z,1010.57
2018-07-20T10:31:30.614Z,1010.52
2018-07-20T10:32:30.532Z,1010.47
2018-07-20T10:33:30.482Z,1010.52
2018-07-20T10:34:30.406Z,1010.52
2018-07-20T10:35:30.330Z,1010.48
2018-07-20T10:36:30.280Z,1010.48
2018-07-20T10:37:30.192Z,1010.45
2018-07-20T10:38:30.130Z,1010.49
2018-07-20T10:39:30.056Z,1010.40
2018-07-20T10:40:29.992Z,1010.39
2018-07-20T10:41:29.917Z,1010.40
2018-07-20T10:42:29.857Z,1010.41
2018-07-20T10:43:29.782Z,1010.40
2018-07-20T10:44:29.719Z,1010.41
2018-07-20T10:45:29.644Z,1010.41
2018-07-20T10:46:29.581Z,1010.34
2018-07-20T10:47:29.507Z,1010.35
2018-07-20T10:48:29.443Z,1010.37
2018-07-20T10:49:29.368Z,1010.40
2018-07-20T10:50:29.308Z,1010.36
2018-07-20T10:51:29.233Z,1010.44
2018-07-20T10:52:29.170Z,1010.40
2018-07-20T10:53:29.096Z,1010.37
2018-07-20T10:54:29.033Z,1010.41
2018-07-20T10:55:28.971Z,1010.60
2018-07-20T10:56:28.895Z,1010.65
2018-07-20T10:57:28.833Z,1010.59
2018-07-20T10:58:28.759Z,1010.45
2018-07-20T10:59:28.694Z,1010.37
2018-07-20T11:00:28.620Z,1010.37
2018-07-20T11:01:28.578Z,1010.52
2018-07-20T11:02:28.484Z,1010.30
2018-07-20T11:03:28.421Z,1010.31
2018-07-20T11:04:28.347Z,1010.32
2018-07-20T11:05:28.285Z,1010.32
2018-07-20T11:06:28.207Z,1010.54
2018-07-20T11:07:28.144Z,1010.33
2018-07-20T11:08:28.071Z,1010.51
2018-07-20T11:09:28.012Z,1010.41
2018-07-20T11:10:27.944Z,1010.30
2018-07-20T11:11:27.870Z,1010.30
2018-07-20T11:12:27.808Z,1010.46
2018-07-20T11:13:27.734Z,1010.39
2018-07-20T11:14:27.673Z,1010.46
2018-07-20T11:15:27.610Z,1010.27
2018-07-20T11:16:27.537Z,1010.29
2018-07-20T11:17:27.473Z,1010.38
2018-07-20T11:18:27.408Z,1010.44
2018-07-20T11:19:27.334Z,1010.38
2018-07-20T11:20:27.304Z,1010.27
2018-07-20T11:21:27.210Z,1010.24
2018-07-20T11:22:27.137Z,1010.21
2018-07-20T11:23:27.073Z,1010.22
2018-07-20T11:24:27.012Z,1010.29
2018-07-20T11:25:26.936Z,1010.18
2018-07-20T11:26:26.871Z,1010.18
2018-07-20T11:27:26.810Z,1010.21
2018-07-20T11:28:26.748Z,1010.30
2018-07-20T11:29:26.671Z,1010.21
2018-07-20T11:30:26.612Z,1010.32
2018-07-20T11:31:26.549Z,1010.39
2018-07-20T11:32:26.474Z,1010.39
2018-07-20T11:33:26.413Z,1010.46
2018-07-20T11:34:26.360Z,1010.45
2018-07-20T11:35:26.273Z,1010.37
2018-07-20T11:36:26.210Z,1010.23
2018-07-20T11:37:26.160Z,1010.16
2018-07-20T11:38:26.078Z,1010.20
2018-07-20T11:39:26.016Z,1010.19
2018-07-20T11:40:25.950Z,1010.19
2018-07-20T11:41:25.877Z,1010.20
2018-07-20T11:42:25.820Z,1010.16
2018-07-20T11:43:25.751Z,1010.22
2018-07-20T11:44:25.689Z,1010.23
2018-07-20T11:45:25.615Z,1010.16
2018-07-20T11:46:25.564Z,1010.14
2018-07-20T11:47:25.493Z,1010.20
2018-07-20T11:48:25.412Z,1010.39
2018-07-20T11:49:25.351Z,1010.31
2018-07-20T11:50:25.280Z,1010.26
2018-07-20T11:51:25.215Z,1010.29
2018-07-20T11:52:25.152Z,1010.27
2018-07-20T11:53:25.082Z,1010.24
2018-07-20T11:54:25.015Z,1010.22
2018-07-20T11:55:24.949Z,1010.23
2018-07-20T11:56:24.889Z,1010.10
2018-07-20T11:57:24.813Z,1010.09
2018-07-20T11:58:24.751Z,1010.07
2018-07-20T11:59:24.688Z,1010.02
2018-07-20T12:00:24.614Z,1010.02
2018-07-20T12:01:24.554Z,1010.04
2018-07-20T12:02:24.494Z,1010.04
2018-07-20T12:03:24.428Z,1010.07
2018-07-20T12:04:24.352Z,1010.00